Terminal Aerodrome Forecast
Issued by NWS New Orleans/Baton Rouge, LA

Home | Current Version | Previous Version | Text Only | Print | Product List | Glossary On
Versions: 1 2 3 4 5 6 7 8 9 10 11 12 13 14 15 16 17 18 19 20 21 22 23
000
FTUS44 KLIX 160520
TAFNEW
TAF
KNEW 160520Z 1606/1706 03010KT P6SM BKN130 BKN200
     FM161200 06008KT P6SM BKN150 BKN200
     FM162100 09009KT P6SM BKN070 BKN150
     FM170100 09008KT P6SM BKN020 BKN120
     FM170300 09009KT P6SM BKN015 BKN090=

USA.gov is the U.S. government's official web portal to all federal, state and local government web resources and services.